sensor_id;sensor_type;location;lat;lon;timestamp;P1;durP1;ratioP1;P2;durP2;ratioP2
30519;SDS011;17300;50.374;8.006;2023-05-16T00:01:46;9.20;;;8.40;;
30519;SDS011;17300;50.374;8.006;2023-05-16T00:04:13;9.93;;;9.13;;
30519;SDS011;17300;50.374;8.006;2023-05-16T00:06:40;10.37;;;9.37;;
30519;SDS011;17300;50.374;8.006;2023-05-16T00:09:06;10.33;;;9.43;;
30519;SDS011;17300;50.374;8.006;2023-05-16T00:11:33;10.13;;;9.23;;
30519;SDS011;17300;50.374;8.006;2023-05-16T00:14:00;9.20;;;8.40;;
30519;SDS011;17300;50.374;8.006;2023-05-16T00:16:26;9.37;;;8.47;;
30519;SDS011;17300;50.374;8.006;2023-05-16T00:18:55;8.73;;;8.00;;
30519;SDS011;17300;50.374;8.006;2023-05-16T00:21:23;9.70;;;8.80;;
30519;SDS011;17300;50.374;8.006;2023-05-16T00:23:50;9.30;;;8.40;;
30519;SDS011;17300;50.374;8.006;2023-05-16T00:26:17;9.20;;;8.40;;
30519;SDS011;17300;50.374;8.006;2023-05-16T00:28:44;9.47;;;8.63;;
30519;SDS011;17300;50.374;8.006;2023-05-16T00:31:11;8.67;;;7.97;;
30519;SDS011;17300;50.374;8.006;2023-05-16T00:33:38;8.37;;;7.67;;
30519;SDS011;17300;50.374;8.006;2023-05-16T00:36:06;8.10;;;7.40;;
30519;SDS011;17300;50.374;8.006;2023-05-16T00:38:33;9.23;;;8.37;;
30519;SDS011;17300;50.374;8.006;2023-05-16T00:41:01;8.50;;;7.70;;
30519;SDS011;17300;50.374;8.006;2023-05-16T00:43:28;8.93;;;8.03;;
30519;SDS011;17300;50.374;8.006;2023-05-16T00:45:55;7.60;;;6.80;;
30519;SDS011;17300;50.374;8.006;2023-05-16T00:48:22;8.33;;;7.53;;
30519;SDS011;17300;50.374;8.006;2023-05-16T00:50:49;8.80;;;8.00;;
30519;SDS011;17300;50.374;8.006;2023-05-16T00:53:18;9.23;;;8.33;;
30519;SDS011;17300;50.374;8.006;2023-05-16T00:55:44;8.80;;;8.00;;
30519;SDS011;17300;50.374;8.006;2023-05-16T00:58:12;9.97;;;9.07;;
30519;SDS011;17300;50.374;8.006;2023-05-16T01:00:40;8.27;;;7.57;;
30519;SDS011;17300;50.374;8.006;2023-05-16T01:03:07;9.57;;;8.57;;
30519;SDS011;17300;50.374;8.006;2023-05-16T01:05:33;9.93;;;9.00;;
30519;SDS011;17300;50.374;8.006;2023-05-16T01:08:00;10.60;;;9.57;;
30519;SDS011;17300;50.374;8.006;2023-05-16T01:10:29;8.97;;;8.17;;
30519;SDS011;17300;50.374;8.006;2023-05-16T01:13:10;9.80;;;8.33;;
30519;SDS011;17300;50.374;8.006;2023-05-16T01:15:44;9.67;;;8.70;;
30519;SDS011;17300;50.374;8.006;2023-05-16T01:18:17;10.23;;;9.30;;
30519;SDS011;17300;50.374;8.006;2023-05-16T01:20:55;10.27;;;9.30;;
30519;SDS011;17300;50.374;8.006;2023-05-16T01:23:33;11.50;;;10.30;;
30519;SDS011;17300;50.374;8.006;2023-05-16T01:26:16;11.20;;;10.10;;
30519;SDS011;17300;50.374;8.006;2023-05-16T01:28:46;10.13;;;9.13;;
30519;SDS011;17300;50.374;8.006;2023-05-16T01:31:14;10.37;;;9.37;;
30519;SDS011;17300;50.374;8.006;2023-05-16T01:33:41;10.73;;;9.63;;
30519;SDS011;17300;50.374;8.006;2023-05-16T01:36:10;11.13;;;9.03;;
30519;SDS011;17300;50.374;8.006;2023-05-16T01:38:43;11.23;;;9.07;;
30519;SDS011;17300;50.374;8.006;2023-05-16T01:41:20;10.97;;;8.63;;
30519;SDS011;17300;50.374;8.006;2023-05-16T01:43:55;9.63;;;8.63;;
30519;SDS011;17300;50.374;8.006;2023-05-16T01:46:27;9.90;;;8.80;;
30519;SDS011;17300;50.374;8.006;2023-05-16T01:49:01;10.13;;;8.27;;
30519;SDS011;17300;50.374;8.006;2023-05-16T01:51:31;9.67;;;8.67;;
30519;SDS011;17300;50.374;8.006;2023-05-16T01:53:59;10.60;;;8.20;;
30519;SDS011;17300;50.374;8.006;2023-05-16T01:56:32;8.30;;;7.47;;
30519;SDS011;17300;50.374;8.006;2023-05-16T01:59:01;8.47;;;7.63;;
30519;SDS011;17300;50.374;8.006;2023-05-16T02:01:28;8.97;;;7.33;;
30519;SDS011;17300;50.374;8.006;2023-05-16T02:03:56;7.90;;;7.10;;
30519;SDS011;17300;50.374;8.006;2023-05-16T02:06:23;7.27;;;6.57;;
30519;SDS011;17300;50.374;8.006;2023-05-16T02:08:49;7.40;;;6.43;;
30519;SDS011;17300;50.374;8.006;2023-05-16T02:11:16;7.17;;;6.23;;
30519;SDS011;17300;50.374;8.006;2023-05-16T02:13:44;7.03;;;6.33;;
30519;SDS011;17300;50.374;8.006;2023-05-16T02:16:11;7.40;;;6.53;;
30519;SDS011;17300;50.374;8.006;2023-05-16T02:18:38;7.00;;;6.30;;
30519;SDS011;17300;50.374;8.006;2023-05-16T02:21:05;6.67;;;5.87;;
30519;SDS011;17300;50.374;8.006;2023-05-16T02:23:32;6.77;;;6.17;;
30519;SDS011;17300;50.374;8.006;2023-05-16T02:25:59;7.10;;;6.40;;
30519;SDS011;17300;50.374;8.006;2023-05-16T02:28:25;6.23;;;5.63;;
30519;SDS011;17300;50.374;8.006;2023-05-16T02:30:57;6.33;;;5.73;;
30519;SDS011;17300;50.374;8.006;2023-05-16T02:33:24;5.50;;;4.97;;
30519;SDS011;17300;50.374;8.006;2023-05-16T02:35:51;5.00;;;4.60;;
30519;SDS011;17300;50.374;8.006;2023-05-16T02:38:18;4.63;;;4.23;;
30519;SDS011;17300;50.374;8.006;2023-05-16T02:40:45;4.30;;;3.90;;
30519;SDS011;17300;50.374;8.006;2023-05-16T02:43:11;4.53;;;3.83;;
30519;SDS011;17300;50.374;8.006;2023-05-16T02:45:38;3.77;;;3.47;;
30519;SDS011;17300;50.374;8.006;2023-05-16T02:48:06;3.30;;;3.00;;
30519;SDS011;17300;50.374;8.006;2023-05-16T02:50:33;3.07;;;2.87;;
30519;SDS011;17300;50.374;8.006;2023-05-16T02:53:00;2.70;;;2.50;;
30519;SDS011;17300;50.374;8.006;2023-05-16T02:55:27;2.77;;;2.10;;
30519;SDS011;17300;50.374;8.006;2023-05-16T02:57:53;2.10;;;2.00;;
30519;SDS011;17300;50.374;8.006;2023-05-16T03:00:20;1.63;;;1.53;;
30519;SDS011;17300;50.374;8.006;2023-05-16T03:02:47;1.70;;;1.60;;
30519;SDS011;17300;50.374;8.006;2023-05-16T03:05:15;1.80;;;1.70;;
30519;SDS011;17300;50.374;8.006;2023-05-16T03:07:42;2.00;;;1.13;;
30519;SDS011;17300;50.374;8.006;2023-05-16T03:10:09;1.10;;;1.10;;
30519;SDS011;17300;50.374;8.006;2023-05-16T03:12:36;1.00;;;1.00;;
30519;SDS011;17300;50.374;8.006;2023-05-16T03:15:03;1.20;;;1.10;;
30519;SDS011;17300;50.374;8.006;2023-05-16T03:17:30;1.23;;;1.00;;
30519;SDS011;17300;50.374;8.006;2023-05-16T03:19:57;1.17;;;1.00;;
30519;SDS011;17300;50.374;8.006;2023-05-16T03:22:25;1.10;;;1.10;;
30519;SDS011;17300;50.374;8.006;2023-05-16T03:24:52;0.97;;;0.97;;
30519;SDS011;17300;50.374;8.006;2023-05-16T03:27:18;1.93;;;1.23;;
30519;SDS011;17300;50.374;8.006;2023-05-16T03:29:45;1.30;;;1.20;;
30519;SDS011;17300;50.374;8.006;2023-05-16T03:32:12;1.23;;;0.90;;
30519;SDS011;17300;50.374;8.006;2023-05-16T03:34:38;1.20;;;1.10;;
30519;SDS011;17300;50.374;8.006;2023-05-16T03:37:05;0.93;;;0.93;;
30519;SDS011;17300;50.374;8.006;2023-05-16T03:39:33;1.17;;;1.10;;
30519;SDS011;17300;50.374;8.006;2023-05-16T03:42:00;0.90;;;0.90;;
30519;SDS011;17300;50.374;8.006;2023-05-16T03:44:26;0.97;;;0.97;;
30519;SDS011;17300;50.374;8.006;2023-05-16T03:46:53;0.90;;;0.90;;
30519;SDS011;17300;50.374;8.006;2023-05-16T03:49:22;1.00;;;1.00;;
30519;SDS011;17300;50.374;8.006;2023-05-16T03:51:51;0.90;;;0.90;;
30519;SDS011;17300;50.374;8.006;2023-05-16T03:54:18;0.80;;;0.80;;
30519;SDS011;17300;50.374;8.006;2023-05-16T03:56:46;0.83;;;0.83;;
30519;SDS011;17300;50.374;8.006;2023-05-16T03:59:12;0.80;;;0.80;;
30519;SDS011;17300;50.374;8.006;2023-05-16T04:01:39;0.77;;;0.70;;
30519;SDS011;17300;50.374;8.006;2023-05-16T04:04:06;0.90;;;0.80;;
30519;SDS011;17300;50.374;8.006;2023-05-16T04:06:32;0.70;;;0.70;;
30519;SDS011;17300;50.374;8.006;2023-05-16T04:08:59;0.73;;;0.70;;
30519;SDS011;17300;50.374;8.006;2023-05-16T04:11:26;2.70;;;1.00;;
30519;SDS011;17300;50.374;8.006;2023-05-16T04:13:54;1.00;;;0.90;;
30519;SDS011;17300;50.374;8.006;2023-05-16T04:16:20;0.90;;;0.90;;
30519;SDS011;17300;50.374;8.006;2023-05-16T04:18:47;0.77;;;0.77;;
30519;SDS011;17300;50.374;8.006;2023-05-16T04:21:14;1.77;;;0.97;;
30519;SDS011;17300;50.374;8.006;2023-05-16T04:23:40;0.70;;;0.70;;
30519;SDS011;17300;50.374;8.006;2023-05-16T04:26:07;1.63;;;0.83;;
30519;SDS011;17300;50.374;8.006;2023-05-16T04:28:34;0.80;;;0.80;;
30519;SDS011;17300;50.374;8.006;2023-05-16T04:31:02;0.80;;;0.80;;
30519;SDS011;17300;50.374;8.006;2023-05-16T04:33:29;0.80;;;0.80;;
30519;SDS011;17300;50.374;8.006;2023-05-16T04:35:55;0.70;;;0.70;;
30519;SDS011;17300;50.374;8.006;2023-05-16T04:38:23;0.80;;;0.80;;
30519;SDS011;17300;50.374;8.006;2023-05-16T04:40:49;0.70;;;0.70;;
30519;SDS011;17300;50.374;8.006;2023-05-16T04:43:16;1.07;;;0.80;;
30519;SDS011;17300;50.374;8.006;2023-05-16T04:45:44;0.70;;;0.70;;
30519;SDS011;17300;50.374;8.006;2023-05-16T04:48:12;0.70;;;0.70;;
30519;SDS011;17300;50.374;8.006;2023-05-16T04:50:39;0.70;;;0.70;;
30519;SDS011;17300;50.374;8.006;2023-05-16T04:53:05;0.90;;;0.90;;
30519;SDS011;17300;50.374;8.006;2023-05-16T04:55:32;0.80;;;0.80;;
30519;SDS011;17300;50.374;8.006;2023-05-16T04:57:59;1.30;;;0.83;;
30519;SDS011;17300;50.374;8.006;2023-05-16T05:00:26;1.10;;;0.90;;
30519;SDS011;17300;50.374;8.006;2023-05-16T05:02:52;0.90;;;0.90;;
30519;SDS011;17300;50.374;8.006;2023-05-16T05:05:20;0.80;;;0.80;;
30519;SDS011;17300;50.374;8.006;2023-05-16T05:07:47;1.10;;;1.00;;
30519;SDS011;17300;50.374;8.006;2023-05-16T05:10:13;0.87;;;0.87;;
30519;SDS011;17300;50.374;8.006;2023-05-16T05:12:40;1.00;;;0.90;;
30519;SDS011;17300;50.374;8.006;2023-05-16T05:15:07;1.47;;;0.80;;
30519;SDS011;17300;50.374;8.006;2023-05-16T05:17:34;0.80;;;0.80;;
30519;SDS011;17300;50.374;8.006;2023-05-16T05:20:02;0.80;;;0.80;;
30519;SDS011;17300;50.374;8.006;2023-05-16T05:22:32;0.70;;;0.70;;
30519;SDS011;17300;50.374;8.006;2023-05-16T05:24:59;0.73;;;0.70;;
30519;SDS011;17300;50.374;8.006;2023-05-16T05:27:25;0.77;;;0.77;;
30519;SDS011;17300;50.374;8.006;2023-05-16T05:29:52;1.43;;;0.80;;
30519;SDS011;17300;50.374;8.006;2023-05-16T05:32:19;1.00;;;0.90;;
30519;SDS011;17300;50.374;8.006;2023-05-16T05:34:46;1.40;;;0.80;;
30519;SDS011;17300;50.374;8.006;2023-05-16T05:37:12;0.87;;;0.80;;
30519;SDS011;17300;50.374;8.006;2023-05-16T05:39:40;0.70;;;0.70;;
30519;SDS011;17300;50.374;8.006;2023-05-16T05:42:07;0.83;;;0.73;;
30519;SDS011;17300;50.374;8.006;2023-05-16T05:44:34;0.80;;;0.67;;
30519;SDS011;17300;50.374;8.006;2023-05-16T05:47:01;0.70;;;0.70;;
30519;SDS011;17300;50.374;8.006;2023-05-16T05:49:28;0.60;;;0.60;;
30519;SDS011;17300;50.374;8.006;2023-05-16T05:51:56;2.20;;;0.80;;
30519;SDS011;17300;50.374;8.006;2023-05-16T05:54:22;0.70;;;0.70;;
30519;SDS011;17300;50.374;8.006;2023-05-16T05:56:51;0.83;;;0.70;;
30519;SDS011;17300;50.374;8.006;2023-05-16T05:59:18;0.70;;;0.70;;
30519;SDS011;17300;50.374;8.006;2023-05-16T06:01:44;0.87;;;0.70;;
30519;SDS011;17300;50.374;8.006;2023-05-16T06:04:11;0.80;;;0.80;;
30519;SDS011;17300;50.374;8.006;2023-05-16T06:06:38;0.90;;;0.70;;
30519;SDS011;17300;50.374;8.006;2023-05-16T06:09:05;0.67;;;0.67;;
30519;SDS011;17300;50.374;8.006;2023-05-16T06:11:31;0.50;;;0.50;;
30519;SDS011;17300;50.374;8.006;2023-05-16T06:13:59;0.50;;;0.50;;
30519;SDS011;17300;50.374;8.006;2023-05-16T06:16:26;0.50;;;0.50;;
30519;SDS011;17300;50.374;8.006;2023-05-16T06:18:53;1.07;;;0.50;;
30519;SDS011;17300;50.374;8.006;2023-05-16T06:21:19;0.33;;;0.33;;
30519;SDS011;17300;50.374;8.006;2023-05-16T06:23:46;0.30;;;0.30;;
30519;SDS011;17300;50.374;8.006;2023-05-16T06:26:13;0.40;;;0.40;;
30519;SDS011;17300;50.374;8.006;2023-05-16T06:28:40;0.20;;;0.20;;
30519;SDS011;17300;50.374;8.006;2023-05-16T06:31:08;0.20;;;0.20;;
30519;SDS011;17300;50.374;8.006;2023-05-16T06:33:35;0.20;;;0.20;;
30519;SDS011;17300;50.374;8.006;2023-05-16T06:36:03;0.33;;;0.33;;
30519;SDS011;17300;50.374;8.006;2023-05-16T06:38:30;0.27;;;0.27;;
30519;SDS011;17300;50.374;8.006;2023-05-16T06:40:56;0.20;;;0.20;;
30519;SDS011;17300;50.374;8.006;2023-05-16T06:43:23;0.33;;;0.30;;
30519;SDS011;17300;50.374;8.006;2023-05-16T06:45:50;0.23;;;0.23;;
30519;SDS011;17300;50.374;8.006;2023-05-16T06:48:18;0.30;;;0.20;;
30519;SDS011;17300;50.374;8.006;2023-05-16T06:50:46;0.30;;;0.20;;
30519;SDS011;17300;50.374;8.006;2023-05-16T06:53:13;0.20;;;0.20;;
30519;SDS011;17300;50.374;8.006;2023-05-16T06:55:39;0.47;;;0.20;;
30519;SDS011;17300;50.374;8.006;2023-05-16T06:58:06;0.20;;;0.20;;
30519;SDS011;17300;50.374;8.006;2023-05-16T07:00:33;0.60;;;0.40;;
30519;SDS011;17300;50.374;8.006;2023-05-16T07:02:59;0.30;;;0.13;;
30519;SDS011;17300;50.374;8.006;2023-05-16T07:05:29;0.20;;;0.20;;
30519;SDS011;17300;50.374;8.006;2023-05-16T07:07:55;0.20;;;0.20;;
30519;SDS011;17300;50.374;8.006;2023-05-16T07:10:22;0.70;;;0.33;;
30519;SDS011;17300;50.374;8.006;2023-05-16T07:12:49;0.30;;;0.30;;
30519;SDS011;17300;50.374;8.006;2023-05-16T07:15:16;0.33;;;0.30;;
30519;SDS011;17300;50.374;8.006;2023-05-16T07:17:43;0.40;;;0.40;;
30519;SDS011;17300;50.374;8.006;2023-05-16T07:20:10;0.50;;;0.40;;
30519;SDS011;17300;50.374;8.006;2023-05-16T07:22:39;0.80;;;0.40;;
30519;SDS011;17300;50.374;8.006;2023-05-16T07:25:06;0.40;;;0.33;;
30519;SDS011;17300;50.374;8.006;2023-05-16T07:27:36;0.57;;;0.47;;
30519;SDS011;17300;50.374;8.006;2023-05-16T07:30:05;0.40;;;0.40;;
30519;SDS011;17300;50.374;8.006;2023-05-16T07:32:33;0.43;;;0.43;;
30519;SDS011;17300;50.374;8.006;2023-05-16T07:34:59;0.53;;;0.53;;
30519;SDS011;17300;50.374;8.006;2023-05-16T07:37:26;0.90;;;0.50;;
30519;SDS011;17300;50.374;8.006;2023-05-16T07:39:54;0.53;;;0.43;;
30519;SDS011;17300;50.374;8.006;2023-05-16T07:42:21;0.70;;;0.50;;
30519;SDS011;17300;50.374;8.006;2023-05-16T07:44:47;0.83;;;0.60;;
30519;SDS011;17300;50.374;8.006;2023-05-16T07:47:14;1.77;;;0.70;;
30519;SDS011;17300;50.374;8.006;2023-05-16T07:49:41;1.90;;;0.73;;
30519;SDS011;17300;50.374;8.006;2023-05-16T07:52:07;2.13;;;0.93;;
30519;SDS011;17300;50.374;8.006;2023-05-16T07:54:34;1.53;;;0.93;;
30519;SDS011;17300;50.374;8.006;2023-05-16T07:57:02;2.30;;;1.10;;
30519;SDS011;17300;50.374;8.006;2023-05-16T07:59:29;1.60;;;0.90;;
30519;SDS011;17300;50.374;8.006;2023-05-16T08:01:56;2.80;;;1.20;;
30519;SDS011;17300;50.374;8.006;2023-05-16T08:04:23;1.63;;;1.00;;
30519;SDS011;17300;50.374;8.006;2023-05-16T08:06:49;1.90;;;0.93;;
30519;SDS011;17300;50.374;8.006;2023-05-16T08:09:16;1.80;;;1.10;;
30519;SDS011;17300;50.374;8.006;2023-05-16T08:11:43;1.90;;;0.97;;
30519;SDS011;17300;50.374;8.006;2023-05-16T08:14:11;1.87;;;1.07;;
30519;SDS011;17300;50.374;8.006;2023-05-16T08:16:38;2.70;;;1.00;;
30519;SDS011;17300;50.374;8.006;2023-05-16T08:19:04;1.73;;;1.00;;
30519;SDS011;17300;50.374;8.006;2023-05-16T08:21:31;1.53;;;1.00;;
30519;SDS011;17300;50.374;8.006;2023-05-16T08:23:58;3.80;;;1.30;;
30519;SDS011;17300;50.374;8.006;2023-05-16T08:26:25;3.43;;;1.40;;
30519;SDS011;17300;50.374;8.006;2023-05-16T08:28:51;2.60;;;1.17;;
30519;SDS011;17300;50.374;8.006;2023-05-16T08:31:19;2.77;;;1.50;;
30519;SDS011;17300;50.374;8.006;2023-05-16T08:33:46;3.07;;;1.30;;
30519;SDS011;17300;50.374;8.006;2023-05-16T08:36:13;3.17;;;1.30;;
30519;SDS011;17300;50.374;8.006;2023-05-16T08:38:40;2.40;;;1.47;;
30519;SDS011;17300;50.374;8.006;2023-05-16T08:41:06;1.77;;;0.97;;
30519;SDS011;17300;50.374;8.006;2023-05-16T08:43:33;4.03;;;1.30;;
30519;SDS011;17300;50.374;8.006;2023-05-16T08:46:00;2.60;;;1.10;;
30519;SDS011;17300;50.374;8.006;2023-05-16T08:48:28;4.37;;;1.30;;
30519;SDS011;17300;50.374;8.006;2023-05-16T08:50:58;2.97;;;1.03;;
30519;SDS011;17300;50.374;8.006;2023-05-16T08:53:29;2.87;;;1.27;;
30519;SDS011;17300;50.374;8.006;2023-05-16T08:55:58;3.63;;;1.03;;
30519;SDS011;17300;50.374;8.006;2023-05-16T08:58:25;2.43;;;0.93;;
30519;SDS011;17300;50.374;8.006;2023-05-16T09:00:54;3.93;;;1.30;;
30519;SDS011;17300;50.374;8.006;2023-05-16T09:03:21;2.97;;;1.20;;
30519;SDS011;17300;50.374;8.006;2023-05-16T09:05:50;3.80;;;1.40;;
30519;SDS011;17300;50.374;8.006;2023-05-16T09:08:17;2.97;;;1.17;;
30519;SDS011;17300;50.374;8.006;2023-05-16T09:10:44;3.13;;;1.27;;
30519;SDS011;17300;50.374;8.006;2023-05-16T09:13:11;2.87;;;1.03;;
30519;SDS011;17300;50.374;8.006;2023-05-16T09:15:38;2.37;;;1.20;;
30519;SDS011;17300;50.374;8.006;2023-05-16T09:18:04;1.90;;;0.93;;
30519;SDS011;17300;50.374;8.006;2023-05-16T09:20:37;2.05;;;0.98;;
30519;SDS011;17300;50.374;8.006;2023-05-16T09:23:12;2.58;;;1.13;;
30519;SDS011;17300;50.374;8.006;2023-05-16T09:25:38;1.75;;;0.90;;
30519;SDS011;17300;50.374;8.006;2023-05-16T09:28:05;2.25;;;0.90;;
30519;SDS011;17300;50.374;8.006;2023-05-16T09:30:37;3.55;;;1.30;;
30519;SDS011;17300;50.374;8.006;2023-05-16T09:33:05;2.20;;;1.10;;
30519;SDS011;17300;50.374;8.006;2023-05-16T09:35:32;2.25;;;1.05;;
30519;SDS011;17300;50.374;8.006;2023-05-16T09:37:58;2.95;;;1.05;;
30519;SDS011;17300;50.374;8.006;2023-05-16T09:40:26;3.85;;;1.00;;
30519;SDS011;17300;50.374;8.006;2023-05-16T09:43:00;1.80;;;1.17;;
30519;SDS011;17300;50.374;8.006;2023-05-16T09:45:29;2.80;;;1.00;;
30519;SDS011;17300;50.374;8.006;2023-05-16T09:47:59;2.78;;;1.20;;
30519;SDS011;17300;50.374;8.006;2023-05-16T09:50:31;2.30;;;1.20;;
30519;SDS011;17300;50.374;8.006;2023-05-16T09:52:58;2.47;;;0.95;;
30519;SDS011;17300;50.374;8.006;2023-05-16T09:55:26;3.33;;;1.00;;
30519;SDS011;17300;50.374;8.006;2023-05-16T09:57:54;1.92;;;1.00;;
30519;SDS011;17300;50.374;8.006;2023-05-16T10:00:21;1.52;;;1.10;;
30519;SDS011;17300;50.374;8.006;2023-05-16T10:02:53;1.85;;;1.02;;
30519;SDS011;17300;50.374;8.006;2023-05-16T10:05:23;2.78;;;1.20;;
30519;SDS011;17300;50.374;8.006;2023-05-16T10:07:51;2.47;;;0.98;;
30519;SDS011;17300;50.374;8.006;2023-05-16T10:10:20;2.28;;;1.00;;
30519;SDS011;17300;50.374;8.006;2023-05-16T10:12:49;1.83;;;1.08;;
30519;SDS011;17300;50.374;8.006;2023-05-16T10:15:16;1.73;;;0.88;;
30519;SDS011;17300;50.374;8.006;2023-05-16T10:17:44;1.75;;;0.90;;
30519;SDS011;17300;50.374;8.006;2023-05-16T10:20:15;1.90;;;0.95;;
30519;SDS011;17300;50.374;8.006;2023-05-16T10:22:42;1.13;;;0.80;;
30519;SDS011;17300;50.374;8.006;2023-05-16T10:25:11;1.55;;;0.80;;
30519;SDS011;17300;50.374;8.006;2023-05-16T10:27:50;1.17;;;0.80;;
30519;SDS011;17300;50.374;8.006;2023-05-16T10:30:17;1.48;;;0.90;;
30519;SDS011;17300;50.374;8.006;2023-05-16T10:32:45;1.10;;;0.70;;
30519;SDS011;17300;50.374;8.006;2023-05-16T10:35:12;1.48;;;0.90;;
30519;SDS011;17300;50.374;8.006;2023-05-16T10:37:39;1.70;;;0.98;;
30519;SDS011;17300;50.374;8.006;2023-05-16T10:40:07;2.38;;;1.05;;
30519;SDS011;17300;50.374;8.006;2023-05-16T10:42:35;1.00;;;0.80;;
30519;SDS011;17300;50.374;8.006;2023-05-16T10:45:09;1.27;;;0.75;;
30519;SDS011;17300;50.374;8.006;2023-05-16T10:47:49;1.60;;;0.90;;
30519;SDS011;17300;50.374;8.006;2023-05-16T10:50:29;1.38;;;1.00;;
30519;SDS011;17300;50.374;8.006;2023-05-16T10:53:12;2.20;;;0.95;;
30519;SDS011;17300;50.374;8.006;2023-05-16T10:55:44;1.75;;;0.70;;
30519;SDS011;17300;50.374;8.006;2023-05-16T10:58:22;2.50;;;1.00;;
30519;SDS011;17300;50.374;8.006;2023-05-16T11:00:50;2.17;;;0.73;;
30519;SDS011;17300;50.374;8.006;2023-05-16T11:03:52;0.80;;;0.60;;
30519;SDS011;17300;50.374;8.006;2023-05-16T11:06:27;0.95;;;0.70;;
30519;SDS011;17300;50.374;8.006;2023-05-16T11:09:03;1.20;;;0.80;;
30519;SDS011;17300;50.374;8.006;2023-05-16T11:11:40;1.83;;;0.70;;
30519;SDS011;17300;50.374;8.006;2023-05-16T11:14:08;1.48;;;0.73;;
30519;SDS011;17300;50.374;8.006;2023-05-16T11:16:37;1.90;;;0.98;;
30519;SDS011;17300;50.374;8.006;2023-05-16T11:19:04;1.63;;;0.82;;
30519;SDS011;17300;50.374;8.006;2023-05-16T11:24:30;3.45;;;1.00;;
30519;SDS011;17300;50.374;8.006;2023-05-16T11:26:57;1.98;;;0.80;;
30519;SDS011;17300;50.374;8.006;2023-05-16T11:29:25;1.83;;;0.80;;
30519;SDS011;17300;50.374;8.006;2023-05-16T11:31:56;2.38;;;1.00;;
30519;SDS011;17300;50.374;8.006;2023-05-16T11:34:23;1.80;;;0.90;;
30519;SDS011;17300;50.374;8.006;2023-05-16T11:36:50;1.55;;;0.98;;
30519;SDS011;17300;50.374;8.006;2023-05-16T11:39:17;1.52;;;0.80;;
30519;SDS011;17300;50.374;8.006;2023-05-16T11:41:44;1.02;;;0.70;;
30519;SDS011;17300;50.374;8.006;2023-05-16T11:44:10;1.65;;;0.80;;
30519;SDS011;17300;50.374;8.006;2023-05-16T11:46:38;2.25;;;0.80;;
30519;SDS011;17300;50.374;8.006;2023-05-16T11:49:07;2.75;;;0.90;;
30519;SDS011;17300;50.374;8.006;2023-05-16T11:51:36;1.27;;;0.73;;
30519;SDS011;17300;50.374;8.006;2023-05-16T11:54:03;1.35;;;0.82;;
30519;SDS011;17300;50.374;8.006;2023-05-16T11:56:30;1.88;;;0.90;;
30519;SDS011;17300;50.374;8.006;2023-05-16T11:58:57;1.10;;;0.63;;
30519;SDS011;17300;50.374;8.006;2023-05-16T12:01:24;1.65;;;0.80;;
30519;SDS011;17300;50.374;8.006;2023-05-16T12:03:57;1.60;;;0.90;;
30519;SDS011;17300;50.374;8.006;2023-05-16T12:06:25;1.95;;;0.65;;
30519;SDS011;17300;50.374;8.006;2023-05-16T12:08:53;3.05;;;0.73;;
30519;SDS011;17300;50.374;8.006;2023-05-16T12:11:21;1.45;;;0.60;;
30519;SDS011;17300;50.374;8.006;2023-05-16T12:13:48;2.60;;;0.70;;
30519;SDS011;17300;50.374;8.006;2023-05-16T12:16:15;1.58;;;0.70;;
30519;SDS011;17300;50.374;8.006;2023-05-16T12:18:42;1.77;;;0.90;;
30519;SDS011;17300;50.374;8.006;2023-05-16T12:21:09;1.33;;;0.68;;
30519;SDS011;17300;50.374;8.006;2023-05-16T12:23:37;1.52;;;0.90;;
30519;SDS011;17300;50.374;8.006;2023-05-16T12:26:06;1.75;;;0.80;;
30519;SDS011;17300;50.374;8.006;2023-05-16T12:28:33;2.42;;;0.90;;
30519;SDS011;17300;50.374;8.006;2023-05-16T12:31:02;1.98;;;0.80;;
30519;SDS011;17300;50.374;8.006;2023-05-16T12:33:29;1.48;;;0.80;;
30519;SDS011;17300;50.374;8.006;2023-05-16T12:35:56;2.30;;;0.70;;
30519;SDS011;17300;50.374;8.006;2023-05-16T12:38:25;1.25;;;0.60;;
30519;SDS011;17300;50.374;8.006;2023-05-16T12:40:57;2.60;;;0.63;;
30519;SDS011;17300;50.374;8.006;2023-05-16T12:43:24;2.03;;;0.93;;
30519;SDS011;17300;50.374;8.006;2023-05-16T12:45:52;1.58;;;0.80;;
30519;SDS011;17300;50.374;8.006;2023-05-16T12:48:20;2.00;;;1.08;;
30519;SDS011;17300;50.374;8.006;2023-05-16T12:50:47;2.15;;;0.70;;
30519;SDS011;17300;50.374;8.006;2023-05-16T12:53:15;2.60;;;0.95;;
30519;SDS011;17300;50.374;8.006;2023-05-16T12:55:43;1.55;;;0.70;;
30519;SDS011;17300;50.374;8.006;2023-05-16T12:58:11;2.13;;;0.80;;
30519;SDS011;17300;50.374;8.006;2023-05-16T13:00:38;1.35;;;0.68;;
30519;SDS011;17300;50.374;8.006;2023-05-16T13:03:05;1.20;;;0.70;;
30519;SDS011;17300;50.374;8.006;2023-05-16T13:05:32;1.42;;;0.70;;
30519;SDS011;17300;50.374;8.006;2023-05-16T13:07:59;1.58;;;0.80;;
30519;SDS011;17300;50.374;8.006;2023-05-16T13:10:26;0.82;;;0.65;;
30519;SDS011;17300;50.374;8.006;2023-05-16T13:12:53;4.15;;;1.05;;
30519;SDS011;17300;50.374;8.006;2023-05-16T13:15:23;2.00;;;0.98;;
30519;SDS011;17300;50.374;8.006;2023-05-16T13:17:51;1.23;;;0.70;;
30519;SDS011;17300;50.374;8.006;2023-05-16T13:20:17;3.13;;;1.20;;
30519;SDS011;17300;50.374;8.006;2023-05-16T13:22:44;2.38;;;1.17;;
30519;SDS011;17300;50.374;8.006;2023-05-16T13:25:11;2.90;;;1.30;;
30519;SDS011;17300;50.374;8.006;2023-05-16T13:27:38;2.35;;;1.45;;
30519;SDS011;17300;50.374;8.006;2023-05-16T13:30:05;4.18;;;1.70;;
30519;SDS011;17300;50.374;8.006;2023-05-16T13:32:33;4.93;;;2.22;;
30519;SDS011;17300;50.374;8.006;2023-05-16T13:35:00;16.38;;;11.23;;
30519;SDS011;17300;50.374;8.006;2023-05-16T13:37:28;11.23;;;8.20;;
30519;SDS011;17300;50.374;8.006;2023-05-16T13:39:54;8.32;;;5.82;;
30519;SDS011;17300;50.374;8.006;2023-05-16T13:42:21;4.72;;;3.28;;
30519;SDS011;17300;50.374;8.006;2023-05-16T13:44:48;3.25;;;2.50;;
30519;SDS011;17300;50.374;8.006;2023-05-16T13:47:15;3.88;;;1.77;;
30519;SDS011;17300;50.374;8.006;2023-05-16T13:49:43;1.90;;;1.00;;
30519;SDS011;17300;50.374;8.006;2023-05-16T13:52:10;1.60;;;1.00;;
30519;SDS011;17300;50.374;8.006;2023-05-16T13:54:36;1.42;;;0.93;;
30519;SDS011;17300;50.374;8.006;2023-05-16T13:57:04;2.03;;;0.60;;
30519;SDS011;17300;50.374;8.006;2023-05-16T13:59:31;2.05;;;0.85;;
30519;SDS011;17300;50.374;8.006;2023-05-16T14:01:58;1.67;;;0.73;;
30519;SDS011;17300;50.374;8.006;2023-05-16T14:04:25;1.48;;;0.68;;
30519;SDS011;17300;50.374;8.006;2023-05-16T14:06:53;1.50;;;0.75;;
30519;SDS011;17300;50.374;8.006;2023-05-16T14:09:20;1.40;;;0.50;;
30519;SDS011;17300;50.374;8.006;2023-05-16T14:11:46;0.98;;;0.65;;
30519;SDS011;17300;50.374;8.006;2023-05-16T14:14:13;1.23;;;0.77;;
30519;SDS011;17300;50.374;8.006;2023-05-16T14:16:40;0.93;;;0.70;;
30519;SDS011;17300;50.374;8.006;2023-05-16T14:19:09;2.33;;;0.80;;
30519;SDS011;17300;50.374;8.006;2023-05-16T14:21:37;1.20;;;0.70;;
30519;SDS011;17300;50.374;8.006;2023-05-16T14:24:06;1.10;;;0.80;;
30519;SDS011;17300;50.374;8.006;2023-05-16T14:26:33;1.20;;;0.80;;
30519;SDS011;17300;50.374;8.006;2023-05-16T14:29:00;1.45;;;0.75;;
30519;SDS011;17300;50.374;8.006;2023-05-16T14:31:26;1.35;;;0.60;;
30519;SDS011;17300;50.374;8.006;2023-05-16T14:33:53;1.20;;;0.60;;
30519;SDS011;17300;50.374;8.006;2023-05-16T14:36:19;0.77;;;0.60;;
30519;SDS011;17300;50.374;8.006;2023-05-16T14:38:46;1.98;;;0.80;;
30519;SDS011;17300;50.374;8.006;2023-05-16T14:41:14;7.00;;;1.17;;
30519;SDS011;17300;50.374;8.006;2023-05-16T14:43:42;1.42;;;0.70;;
30519;SDS011;17300;50.374;8.006;2023-05-16T14:46:10;0.90;;;0.60;;
30519;SDS011;17300;50.374;8.006;2023-05-16T14:48:36;1.37;;;0.70;;
30519;SDS011;17300;50.374;8.006;2023-05-16T14:51:03;1.90;;;0.80;;
30519;SDS011;17300;50.374;8.006;2023-05-16T14:53:30;4.03;;;1.08;;
30519;SDS011;17300;50.374;8.006;2023-05-16T14:55:56;1.63;;;0.63;;